createdAt,value
2023-05-23T00:02:32.132Z,101451.31
2023-05-23T00:07:33.587Z,101445.19
2023-05-23T00:12:35.103Z,101445.06
2023-05-23T00:17:37.921Z,101457.19
2023-05-23T00:22:42.970Z,101457.22
2023-05-23T00:27:44.613Z,101456.38
2023-05-23T00:32:46.061Z,101451.06
2023-05-23T00:37:50.173Z,101464.78
2023-05-23T00:42:51.585Z,101466.53
2023-05-23T00:47:54.229Z,101465.44
2023-05-23T00:52:57.804Z,101479.94
2023-05-23T00:57:59.565Z,101485.19
2023-05-23T01:03:01.668Z,101470.25
2023-05-23T01:08:03.436Z,101451.28
2023-05-23T01:13:34.227Z,101436.50
2023-05-23T01:18:46.560Z,101413.72
2023-05-23T01:24:10.926Z,101378.22
2023-05-23T01:29:18.129Z,101352.19
2023-05-23T01:34:21.168Z,101315.69
2023-05-23T01:39:23.466Z,101297.59
2023-05-23T01:44:24.945Z,101272.41
2023-05-23T01:49:27.635Z,101253.38
2023-05-23T01:54:30.202Z,101231.75
2023-05-23T01:59:31.675Z,101227.44
2023-05-23T02:04:33.316Z,101242.22
2023-05-23T02:09:34.845Z,101242.13
2023-05-23T02:14:37.513Z,101252.59
2023-05-23T02:19:39.059Z,101262.91
2023-05-23T02:24:41.009Z,101271.50
2023-05-23T02:29:42.478Z,101270.72
2023-05-23T02:34:46.546Z,101275.91
2023-05-23T02:39:47.959Z,101291.41
2023-05-23T02:44:49.644Z,101277.63
2023-05-23T02:49:51.148Z,101287.88
2023-05-23T02:54:52.612Z,101285.28
2023-05-23T02:59:54.074Z,101260.22
2023-05-23T03:04:56.166Z,101260.19
2023-05-23T03:09:57.793Z,101256.63
2023-05-23T03:14:59.284Z,101255.84
2023-05-23T03:20:01.028Z,101271.44
2023-05-23T03:25:02.883Z,101267.22
2023-05-23T03:30:04.722Z,101280.19
2023-05-23T03:35:06.714Z,101294.13
2023-05-23T03:40:09.775Z,101301.84
2023-05-23T03:45:11.354Z,101316.66
2023-05-23T03:50:12.867Z,101326.16
2023-05-23T03:55:14.549Z,101343.56
2023-05-23T04:00:16.081Z,101354.81
2023-05-23T04:05:17.966Z,101378.19
2023-05-23T04:10:19.771Z,101390.44
2023-05-23T04:15:21.626Z,101399.81
2023-05-23T04:20:23.241Z,101408.38
2023-05-23T04:25:24.701Z,101427.41
2023-05-23T04:30:26.123Z,101441.25
2023-05-23T04:35:30.423Z,101449.03
2023-05-23T04:40:32.170Z,101456.66
2023-05-23T04:45:33.937Z,101467.72
2023-05-23T04:50:36.054Z,101484.00
2023-05-23T04:55:37.652Z,101488.28
2023-05-23T05:00:39.588Z,101505.38
2023-05-23T05:05:41.522Z,101522.78
2023-05-23T05:10:43.233Z,101530.38
2023-05-23T05:15:44.712Z,101547.66
2023-05-23T05:20:47.158Z,101547.53
2023-05-23T05:25:48.645Z,101556.09
2023-05-23T05:30:54.214Z,101566.34
2023-05-23T05:35:56.071Z,101576.38
2023-05-23T05:40:57.620Z,101573.81
2023-05-23T05:45:59.147Z,101581.34
2023-05-23T05:51:01.235Z,101590.25
2023-05-23T05:56:03.052Z,101601.41
2023-05-23T06:01:05.727Z,101606.47
2023-05-23T06:06:08.942Z,101629.09
2023-05-23T06:11:10.406Z,101629.06
2023-05-23T06:16:12.062Z,101642.78
2023-05-23T06:21:13.533Z,101655.03
2023-05-23T06:26:14.946Z,101661.13
2023-05-23T06:31:16.441Z,101663.66
2023-05-23T06:36:17.959Z,101665.19
2023-05-23T06:41:19.401Z,101667.22
2023-05-23T06:46:21.006Z,101656.59
2023-05-23T06:51:22.686Z,101650.97
2023-05-23T06:56:24.278Z,101646.75
2023-05-23T07:01:26.727Z,101642.75
2023-05-23T07:06:28.471Z,101645.97
2023-05-23T07:11:29.936Z,101648.28
2023-05-23T07:16:31.496Z,101645.78
2023-05-23T07:21:34.053Z,101655.25
2023-05-23T07:26:35.571Z,101673.47
2023-05-23T07:31:37.359Z,101684.63
2023-05-23T07:36:41.076Z,101693.88
2023-05-23T07:41:42.593Z,101700.94
2023-05-23T07:46:44.035Z,101711.56
2023-05-23T07:51:45.592Z,101713.13
2023-05-23T07:56:47.252Z,101719.69
2023-05-23T08:01:50.665Z,101727.59
2023-05-23T08:07:04.928Z,101755.78
2023-05-23T08:12:08.170Z,101750.22
2023-05-23T08:17:12.402Z,101754.13
2023-05-23T08:22:14.168Z,101747.59
2023-05-23T08:27:15.619Z,101761.97
2023-05-23T08:32:17.134Z,101759.03
2023-05-23T08:37:18.715Z,101756.78
2023-05-23T08:42:20.292Z,101749.50
2023-05-23T08:47:22.124Z,101766.31
2023-05-23T08:52:25.519Z,101773.19
2023-05-23T08:57:28.779Z,101770.91
2023-05-23T09:02:32.469Z,101787.81
2023-05-23T09:07:34.400Z,101798.06
2023-05-23T09:12:38.690Z,101798.09
2023-05-23T09:17:40.617Z,101816.03
2023-05-23T09:22:47.161Z,101813.34
2023-05-23T09:27:48.646Z,101807.88
2023-05-23T09:33:04.766Z,101797.91
2023-05-23T09:38:08.248Z,101802.69
2023-05-23T09:43:09.772Z,101795.66
2023-05-23T09:48:14.614Z,101787.97
2023-05-23T09:53:16.289Z,101794.38
2023-05-23T09:58:19.572Z,101791.38
2023-05-23T10:03:27.368Z,101803.25
2023-05-23T10:08:45.955Z,101788.66
2023-05-23T10:13:50.234Z,101798.34
2023-05-23T10:18:57.755Z,101796.84
2023-05-23T10:24:04.603Z,101798.22
2023-05-23T10:29:07.494Z,101800.53
2023-05-23T10:34:18.806Z,101889.94
2023-05-23T10:39:33.217Z,101897.91
2023-05-23T10:44:36.554Z,101911.97
2023-05-23T10:49:40.011Z,101925.34
2023-05-23T10:54:44.742Z,101927.75
2023-05-23T10:59:47.343Z,101946.47
2023-05-23T11:05:24.831Z,101946.94
2023-05-23T11:10:28.875Z,101938.13
2023-05-23T11:15:42.729Z,101932.94
2023-05-23T11:20:45.143Z,101965.28
2023-05-23T11:25:52.136Z,101958.66
2023-05-23T11:30:53.672Z,101962.59
2023-05-23T11:35:55.387Z,101982.97
2023-05-23T11:40:56.995Z,101978.59
2023-05-23T11:46:07.505Z,101978.50
2023-05-23T11:51:09.146Z,101998.69
2023-05-23T11:56:10.733Z,101996.34
2023-05-23T12:01:13.559Z,102013.41
2023-05-23T12:06:19.339Z,102038.16
2023-05-23T12:11:20.956Z,102040.00
2023-05-23T12:16:22.506Z,102058.66
2023-05-23T12:21:26.718Z,102071.34
2023-05-23T12:26:28.568Z,102092.56
2023-05-23T12:31:30.060Z,102114.69
2023-05-23T12:36:37.726Z,102118.53
2023-05-23T12:41:45.490Z,102116.66
2023-05-23T12:46:47.055Z,102126.19
2023-05-23T12:51:48.829Z,102115.03
2023-05-23T12:56:50.685Z,102113.22
2023-05-23T13:01:52.135Z,102117.78
2023-05-23T13:06:53.612Z,102108.50
2023-05-23T13:11:55.279Z,102114.25
2023-05-23T13:16:56.887Z,102115.34
2023-05-23T13:21:58.478Z,102107.03
2023-05-23T13:26:59.888Z,102115.94
2023-05-23T13:32:01.394Z,102130.94
2023-05-23T13:37:03.060Z,102132.50
2023-05-23T13:42:04.733Z,102146.94
2023-05-23T13:47:15.813Z,102132.97
2023-05-23T13:52:17.383Z,102135.00
2023-05-23T13:57:18.826Z,102125.56
2023-05-23T14:02:21.684Z,102128.91
2023-05-23T14:07:23.399Z,102133.66
2023-05-23T14:12:24.839Z,102127.88
2023-05-23T14:17:26.933Z,102121.34
2023-05-23T14:22:28.412Z,102132.25
2023-05-23T14:27:29.969Z,102150.47
2023-05-23T14:32:35.678Z,102142.81
2023-05-23T14:37:37.426Z,102139.19
2023-05-23T14:42:38.903Z,102131.19
2023-05-23T14:47:43.032Z,102122.19
2023-05-23T14:52:44.555Z,102136.63
2023-05-23T14:57:45.993Z,102134.91
2023-05-23T15:02:47.517Z,102144.97
2023-05-23T15:07:48.994Z,102132.72
2023-05-23T15:12:50.510Z,102138.38
2023-05-23T15:17:52.267Z,102151.63
2023-05-23T15:22:53.768Z,102138.88
2023-05-23T15:27:59.190Z,102149.34
2023-05-23T15:33:01.718Z,102145.22
2023-05-23T15:38:03.479Z,102145.25
2023-05-23T15:43:05.092Z,102158.75
2023-05-23T15:48:06.600Z,102144.28
2023-05-23T15:53:08.403Z,102138.75
2023-05-23T15:58:11.255Z,102137.78
2023-05-23T16:03:12.853Z,102140.31
2023-05-23T16:08:14.409Z,102141.00
2023-05-23T16:13:17.884Z,102139.16
2023-05-23T16:18:20.556Z,102148.78
2023-05-23T16:23:23.673Z,102157.09
2023-05-23T16:28:27.758Z,102165.03
2023-05-23T16:33:31.852Z,102155.44
2023-05-23T16:38:33.387Z,102159.66
2023-05-23T16:43:35.063Z,102157.72
2023-05-23T16:48:36.566Z,102155.84
2023-05-23T16:53:38.102Z,102140.69
2023-05-23T16:58:39.682Z,102150.16
2023-05-23T17:03:41.545Z,102155.06
2023-05-23T17:08:43.227Z,102168.09
2023-05-23T17:13:44.967Z,102158.41
2023-05-23T17:18:46.427Z,102163.41
2023-05-23T17:23:48.161Z,102159.16
2023-05-23T17:28:49.627Z,102150.34
2023-05-23T17:33:51.068Z,102163.19
2023-05-23T17:38:55.533Z,102155.84
2023-05-23T17:43:57.026Z,102155.72
2023-05-23T17:48:58.542Z,102166.13
2023-05-23T17:54:00.222Z,102176.81
2023-05-23T17:59:04.534Z,102180.34
2023-05-23T18:04:06.050Z,102187.81
2023-05-23T18:09:07.528Z,102198.91
2023-05-23T18:14:09.298Z,102198.31
2023-05-23T18:19:10.821Z,102200.06
2023-05-23T18:24:12.388Z,102207.19
2023-05-23T18:29:13.861Z,102201.00
2023-05-23T18:34:15.524Z,102204.72
2023-05-23T18:39:17.147Z,102198.69
2023-05-23T18:44:20.666Z,102212.38
2023-05-23T18:49:23.030Z,102205.84
2023-05-23T18:54:24.752Z,102201.16
2023-05-23T18:59:26.518Z,102207.41
2023-05-23T19:04:28.054Z,102217.81
2023-05-23T19:09:29.668Z,102203.69
2023-05-23T19:14:31.202Z,102188.69
2023-05-23T19:19:34.803Z,102159.91
2023-05-23T19:24:37.305Z,102129.81
2023-05-23T19:29:38.806Z,102112.34
2023-05-23T19:34:40.269Z,102091.84
2023-05-23T19:39:45.758Z,102076.66
2023-05-23T19:44:47.302Z,102067.75
2023-05-23T19:49:48.827Z,102066.38
2023-05-23T19:54:50.262Z,102066.13
2023-05-23T19:59:52.093Z,102073.56
2023-05-23T20:04:53.631Z,102065.03
2023-05-23T20:09:55.509Z,102072.34
2023-05-23T20:14:57.502Z,102072.13
2023-05-23T20:19:59.362Z,102081.34
2023-05-23T20:25:01.432Z,102083.78
2023-05-23T20:30:02.897Z,102079.91
2023-05-23T20:35:04.740Z,102062.53
2023-05-23T20:40:07.523Z,102059.59
2023-05-23T20:45:09.477Z,102054.06
2023-05-23T20:50:12.650Z,102065.03
2023-05-23T20:55:14.906Z,102058.50
2023-05-23T21:00:16.831Z,102054.06
2023-05-23T21:05:18.313Z,102067.50
2023-05-23T21:10:19.885Z,102065.00
2023-05-23T21:15:21.454Z,102082.06
2023-05-23T21:20:22.967Z,102077.63
2023-05-23T21:25:24.564Z,102078.81
2023-05-23T21:30:26.519Z,102082.38
2023-05-23T21:35:28.097Z,102089.47
2023-05-23T21:40:29.596Z,102085.00
2023-05-23T21:45:31.188Z,102083.53
2023-05-23T21:50:32.728Z,102077.94
2023-05-23T21:55:34.338Z,102081.28
2023-05-23T22:00:35.813Z,102084.94
2023-05-23T22:05:37.384Z,102087.72
2023-05-23T22:10:40.505Z,102097.56
2023-05-23T22:15:42.261Z,102099.66
2023-05-23T22:20:43.932Z,102094.31
2023-05-23T22:25:45.892Z,102104.84
2023-05-23T22:30:47.536Z,102106.72
2023-05-23T22:35:48.967Z,102114.97
2023-05-23T22:40:50.400Z,102110.34
2023-05-23T22:45:52.442Z,102107.81
2023-05-23T22:50:57.028Z,102112.09
2023-05-23T22:55:58.597Z,102106.84
2023-05-23T23:01:00.364Z,102112.38
2023-05-23T23:06:01.894Z,102110.63
2023-05-23T23:11:04.221Z,102110.94
2023-05-23T23:16:06.504Z,102103.66
2023-05-23T23:21:07.989Z,102099.78
2023-05-23T23:26:09.469Z,102099.84
2023-05-23T23:31:10.987Z,102098.88
2023-05-23T23:36:12.462Z,102092.47
2023-05-23T23:41:13.945Z,102094.03
2023-05-23T23:46:15.467Z,102099.91
2023-05-23T23:51:17.206Z,102088.63
2023-05-23T23:56:18.652Z,102088.06
